sensor_id;sensor_type;location;lat;lon;timestamp;P1;durP1;ratioP1;P2;durP2;ratioP2
55762;SDS011;42162;51.958;5.426;2023-10-31T00:02:25;5.03;;;0.90;;
55762;SDS011;42162;51.958;5.426;2023-10-31T00:04:52;4.43;;;1.20;;
55762;SDS011;42162;51.958;5.426;2023-10-31T00:07:20;5.82;;;1.45;;
55762;SDS011;42162;51.958;5.426;2023-10-31T00:09:47;4.57;;;1.70;;
55762;SDS011;42162;51.958;5.426;2023-10-31T00:12:14;3.47;;;1.60;;
55762;SDS011;42162;51.958;5.426;2023-10-31T00:14:41;6.30;;;2.53;;
55762;SDS011;42162;51.958;5.426;2023-10-31T00:17:10;6.43;;;3.28;;
55762;SDS011;42162;51.958;5.426;2023-10-31T00:19:37;9.07;;;4.10;;
55762;SDS011;42162;51.958;5.426;2023-10-31T00:22:08;4.78;;;3.35;;
55762;SDS011;42162;51.958;5.426;2023-10-31T00:24:35;9.07;;;4.82;;
55762;SDS011;42162;51.958;5.426;2023-10-31T00:27:05;7.32;;;4.03;;
55762;SDS011;42162;51.958;5.426;2023-10-31T00:29:33;6.50;;;4.68;;
55762;SDS011;42162;51.958;5.426;2023-10-31T00:32:00;8.77;;;5.80;;
55762;SDS011;42162;51.958;5.426;2023-10-31T00:34:30;8.52;;;5.97;;
55762;SDS011;42162;51.958;5.426;2023-10-31T00:36:57;9.25;;;6.03;;
55762;SDS011;42162;51.958;5.426;2023-10-31T00:39:24;8.10;;;6.22;;
55762;SDS011;42162;51.958;5.426;2023-10-31T00:41:51;7.57;;;5.40;;
55762;SDS011;42162;51.958;5.426;2023-10-31T00:44:18;9.65;;;5.70;;
55762;SDS011;42162;51.958;5.426;2023-10-31T00:46:45;7.25;;;5.90;;
55762;SDS011;42162;51.958;5.426;2023-10-31T00:49:13;8.00;;;5.15;;
55762;SDS011;42162;51.958;5.426;2023-10-31T00:51:40;9.57;;;4.72;;
55762;SDS011;42162;51.958;5.426;2023-10-31T00:54:07;10.13;;;4.93;;
55762;SDS011;42162;51.958;5.426;2023-10-31T00:56:35;5.53;;;4.15;;
55762;SDS011;42162;51.958;5.426;2023-10-31T00:59:03;6.97;;;4.15;;
55762;SDS011;42162;51.958;5.426;2023-10-31T01:01:33;5.95;;;4.00;;
55762;SDS011;42162;51.958;5.426;2023-10-31T01:04:00;7.63;;;4.88;;
55762;SDS011;42162;51.958;5.426;2023-10-31T01:06:27;6.95;;;4.50;;
55762;SDS011;42162;51.958;5.426;2023-10-31T01:08:54;7.32;;;4.63;;
55762;SDS011;42162;51.958;5.426;2023-10-31T01:11:21;11.82;;;6.18;;
55762;SDS011;42162;51.958;5.426;2023-10-31T01:13:49;13.07;;;6.07;;
55762;SDS011;42162;51.958;5.426;2023-10-31T01:16:16;11.90;;;6.60;;
55762;SDS011;42162;51.958;5.426;2023-10-31T01:18:44;12.80;;;7.25;;
55762;SDS011;42162;51.958;5.426;2023-10-31T01:21:11;15.20;;;8.68;;
55762;SDS011;42162;51.958;5.426;2023-10-31T01:23:38;11.63;;;8.40;;
55762;SDS011;42162;51.958;5.426;2023-10-31T01:26:05;13.13;;;9.30;;
55762;SDS011;42162;51.958;5.426;2023-10-31T01:28:33;14.63;;;9.18;;
55762;SDS011;42162;51.958;5.426;2023-10-31T01:31:02;8.82;;;7.72;;
55762;SDS011;42162;51.958;5.426;2023-10-31T01:33:29;11.35;;;8.88;;
55762;SDS011;42162;51.958;5.426;2023-10-31T01:36:00;11.68;;;8.52;;
55762;SDS011;42162;51.958;5.426;2023-10-31T01:38:28;12.73;;;8.27;;
55762;SDS011;42162;51.958;5.426;2023-10-31T01:40:56;10.18;;;8.35;;
55762;SDS011;42162;51.958;5.426;2023-10-31T01:43:33;14.70;;;8.25;;
55762;SDS011;42162;51.958;5.426;2023-10-31T01:46:03;8.68;;;5.85;;
55762;SDS011;42162;51.958;5.426;2023-10-31T01:48:32;10.20;;;5.68;;
55762;SDS011;42162;51.958;5.426;2023-10-31T01:51:01;9.20;;;5.55;;
55762;SDS011;42162;51.958;5.426;2023-10-31T01:53:34;10.18;;;4.63;;
55762;SDS011;42162;51.958;5.426;2023-10-31T01:56:03;11.57;;;4.20;;
55762;SDS011;42162;51.958;5.426;2023-10-31T01:58:33;7.97;;;4.05;;
55762;SDS011;42162;51.958;5.426;2023-10-31T02:01:02;10.05;;;4.38;;
55762;SDS011;42162;51.958;5.426;2023-10-31T02:03:44;7.47;;;3.97;;
55762;SDS011;42162;51.958;5.426;2023-10-31T02:06:12;8.25;;;3.78;;
55762;SDS011;42162;51.958;5.426;2023-10-31T02:08:39;8.25;;;3.63;;
55762;SDS011;42162;51.958;5.426;2023-10-31T02:11:06;9.38;;;4.10;;
55762;SDS011;42162;51.958;5.426;2023-10-31T02:13:38;12.65;;;4.07;;
55762;SDS011;42162;51.958;5.426;2023-10-31T02:16:06;9.02;;;5.03;;
55762;SDS011;42162;51.958;5.426;2023-10-31T02:18:34;7.32;;;4.70;;
55762;SDS011;42162;51.958;5.426;2023-10-31T02:21:01;7.88;;;4.63;;
55762;SDS011;42162;51.958;5.426;2023-10-31T02:23:28;8.85;;;5.53;;
55762;SDS011;42162;51.958;5.426;2023-10-31T02:25:55;11.00;;;6.03;;
55762;SDS011;42162;51.958;5.426;2023-10-31T02:28:22;11.57;;;6.80;;
55762;SDS011;42162;51.958;5.426;2023-10-31T02:30:57;11.38;;;6.18;;
55762;SDS011;42162;51.958;5.426;2023-10-31T02:33:41;14.23;;;7.03;;
55762;SDS011;42162;51.958;5.426;2023-10-31T02:36:10;10.02;;;7.38;;
55762;SDS011;42162;51.958;5.426;2023-10-31T02:38:39;8.88;;;6.80;;
55762;SDS011;42162;51.958;5.426;2023-10-31T02:41:06;11.95;;;7.68;;
55762;SDS011;42162;51.958;5.426;2023-10-31T02:43:37;14.10;;;8.32;;
55762;SDS011;42162;51.958;5.426;2023-10-31T02:46:05;9.98;;;7.53;;
55762;SDS011;42162;51.958;5.426;2023-10-31T02:48:33;13.05;;;8.38;;
55762;SDS011;42162;51.958;5.426;2023-10-31T02:51:07;12.38;;;8.45;;
55762;SDS011;42162;51.958;5.426;2023-10-31T02:53:35;14.65;;;8.18;;
55762;SDS011;42162;51.958;5.426;2023-10-31T02:56:03;13.90;;;7.75;;
55762;SDS011;42162;51.958;5.426;2023-10-31T02:58:31;11.25;;;8.52;;
55762;SDS011;42162;51.958;5.426;2023-10-31T03:00:58;17.55;;;7.45;;
55762;SDS011;42162;51.958;5.426;2023-10-31T03:03:25;8.82;;;6.50;;
55762;SDS011;42162;51.958;5.426;2023-10-31T03:05:53;10.60;;;7.43;;
55762;SDS011;42162;51.958;5.426;2023-10-31T03:08:22;11.18;;;6.65;;
55762;SDS011;42162;51.958;5.426;2023-10-31T03:10:50;5.97;;;4.40;;
55762;SDS011;42162;51.958;5.426;2023-10-31T03:13:18;6.45;;;4.97;;
55762;SDS011;42162;51.958;5.426;2023-10-31T03:15:46;6.07;;;4.30;;
55762;SDS011;42162;51.958;5.426;2023-10-31T03:18:15;7.68;;;4.72;;
55762;SDS011;42162;51.958;5.426;2023-10-31T03:20:43;7.60;;;3.95;;
55762;SDS011;42162;51.958;5.426;2023-10-31T03:23:14;7.80;;;3.92;;
55762;SDS011;42162;51.958;5.426;2023-10-31T03:25:41;6.18;;;3.35;;
55762;SDS011;42162;51.958;5.426;2023-10-31T03:28:19;5.55;;;3.30;;
55762;SDS011;42162;51.958;5.426;2023-10-31T03:30:47;4.03;;;2.70;;
55762;SDS011;42162;51.958;5.426;2023-10-31T03:33:15;4.43;;;2.50;;
55762;SDS011;42162;51.958;5.426;2023-10-31T03:35:45;4.60;;;2.25;;
55762;SDS011;42162;51.958;5.426;2023-10-31T03:38:13;4.20;;;2.13;;
55762;SDS011;42162;51.958;5.426;2023-10-31T03:40:41;4.38;;;2.00;;
55762;SDS011;42162;51.958;5.426;2023-10-31T03:43:11;4.00;;;2.08;;
55762;SDS011;42162;51.958;5.426;2023-10-31T03:45:40;4.95;;;1.90;;
55762;SDS011;42162;51.958;5.426;2023-10-31T03:48:07;6.07;;;1.95;;
55762;SDS011;42162;51.958;5.426;2023-10-31T03:50:34;4.15;;;1.73;;
55762;SDS011;42162;51.958;5.426;2023-10-31T03:53:02;6.55;;;2.08;;
55762;SDS011;42162;51.958;5.426;2023-10-31T03:55:29;4.82;;;2.25;;
55762;SDS011;42162;51.958;5.426;2023-10-31T03:57:57;4.32;;;2.35;;
55762;SDS011;42162;51.958;5.426;2023-10-31T04:00:24;6.57;;;2.90;;
55762;SDS011;42162;51.958;5.426;2023-10-31T04:02:51;4.25;;;3.00;;
55762;SDS011;42162;51.958;5.426;2023-10-31T04:05:19;6.82;;;2.92;;
55762;SDS011;42162;51.958;5.426;2023-10-31T04:07:46;6.78;;;4.00;;
55762;SDS011;42162;51.958;5.426;2023-10-31T04:10:13;6.20;;;3.38;;
55762;SDS011;42162;51.958;5.426;2023-10-31T04:12:41;10.32;;;4.03;;
55762;SDS011;42162;51.958;5.426;2023-10-31T04:15:09;10.25;;;3.63;;
55762;SDS011;42162;51.958;5.426;2023-10-31T04:17:36;7.40;;;3.63;;
55762;SDS011;42162;51.958;5.426;2023-10-31T04:20:04;10.88;;;3.63;;
55762;SDS011;42162;51.958;5.426;2023-10-31T04:22:32;8.18;;;3.10;;
55762;SDS011;42162;51.958;5.426;2023-10-31T04:24:59;8.50;;;3.10;;
55762;SDS011;42162;51.958;5.426;2023-10-31T04:27:26;5.53;;;3.10;;
55762;SDS011;42162;51.958;5.426;2023-10-31T04:29:53;5.75;;;2.80;;
55762;SDS011;42162;51.958;5.426;2023-10-31T04:32:20;6.20;;;3.60;;
55762;SDS011;42162;51.958;5.426;2023-10-31T04:34:47;5.47;;;2.95;;
55762;SDS011;42162;51.958;5.426;2023-10-31T04:37:15;6.65;;;3.30;;
55762;SDS011;42162;51.958;5.426;2023-10-31T04:39:42;3.95;;;2.95;;
55762;SDS011;42162;51.958;5.426;2023-10-31T04:42:09;8.15;;;3.38;;
55762;SDS011;42162;51.958;5.426;2023-10-31T04:44:36;3.35;;;2.80;;
55762;SDS011;42162;51.958;5.426;2023-10-31T04:47:03;5.00;;;2.55;;
55762;SDS011;42162;51.958;5.426;2023-10-31T04:49:31;5.72;;;2.67;;
55762;SDS011;42162;51.958;5.426;2023-10-31T04:51:58;7.22;;;3.05;;
55762;SDS011;42162;51.958;5.426;2023-10-31T04:54:25;7.32;;;2.65;;
55762;SDS011;42162;51.958;5.426;2023-10-31T04:56:52;5.38;;;2.50;;
55762;SDS011;42162;51.958;5.426;2023-10-31T04:59:19;4.72;;;2.22;;
55762;SDS011;42162;51.958;5.426;2023-10-31T05:01:50;7.10;;;2.08;;
55762;SDS011;42162;51.958;5.426;2023-10-31T05:04:18;2.70;;;1.45;;
55762;SDS011;42162;51.958;5.426;2023-10-31T05:06:45;7.18;;;2.55;;
55762;SDS011;42162;51.958;5.426;2023-10-31T05:09:13;3.63;;;1.58;;
55762;SDS011;42162;51.958;5.426;2023-10-31T05:11:41;2.97;;;1.30;;
55762;SDS011;42162;51.958;5.426;2023-10-31T05:14:08;3.05;;;1.88;;
55762;SDS011;42162;51.958;5.426;2023-10-31T05:16:42;5.38;;;2.03;;
55762;SDS011;42162;51.958;5.426;2023-10-31T05:19:10;4.80;;;1.92;;
55762;SDS011;42162;51.958;5.426;2023-10-31T05:21:37;5.60;;;2.10;;
55762;SDS011;42162;51.958;5.426;2023-10-31T05:24:05;3.72;;;1.77;;
55762;SDS011;42162;51.958;5.426;2023-10-31T05:26:33;5.03;;;1.55;;
55762;SDS011;42162;51.958;5.426;2023-10-31T05:29:00;3.75;;;1.98;;
55762;SDS011;42162;51.958;5.426;2023-10-31T05:31:27;6.53;;;2.33;;
55762;SDS011;42162;51.958;5.426;2023-10-31T05:33:54;2.78;;;1.75;;
55762;SDS011;42162;51.958;5.426;2023-10-31T05:36:23;4.20;;;1.92;;
55762;SDS011;42162;51.958;5.426;2023-10-31T05:38:52;3.60;;;1.95;;
55762;SDS011;42162;51.958;5.426;2023-10-31T05:41:19;2.40;;;1.60;;
55762;SDS011;42162;51.958;5.426;2023-10-31T05:43:46;3.72;;;1.33;;
55762;SDS011;42162;51.958;5.426;2023-10-31T05:46:14;4.03;;;1.40;;
55762;SDS011;42162;51.958;5.426;2023-10-31T05:48:43;1.85;;;1.00;;
55762;SDS011;42162;51.958;5.426;2023-10-31T05:51:14;2.75;;;0.80;;
55762;SDS011;42162;51.958;5.426;2023-10-31T05:53:44;1.95;;;0.80;;
55762;SDS011;42162;51.958;5.426;2023-10-31T05:56:13;3.22;;;0.90;;
55762;SDS011;42162;51.958;5.426;2023-10-31T05:58:42;2.38;;;0.52;;
55762;SDS011;42162;51.958;5.426;2023-10-31T06:01:09;2.22;;;0.90;;
55762;SDS011;42162;51.958;5.426;2023-10-31T06:03:36;1.27;;;0.55;;
55762;SDS011;42162;51.958;5.426;2023-10-31T06:06:04;3.30;;;0.60;;
55762;SDS011;42162;51.958;5.426;2023-10-31T06:08:32;2.97;;;0.70;;
55762;SDS011;42162;51.958;5.426;2023-10-31T06:11:00;4.07;;;1.00;;
55762;SDS011;42162;51.958;5.426;2023-10-31T06:13:27;2.28;;;0.88;;
55762;SDS011;42162;51.958;5.426;2023-10-31T06:16:00;1.58;;;0.70;;
55762;SDS011;42162;51.958;5.426;2023-10-31T06:18:28;0.73;;;0.55;;
55762;SDS011;42162;51.958;5.426;2023-10-31T06:20:55;3.03;;;0.98;;
55762;SDS011;42162;51.958;5.426;2023-10-31T06:23:22;3.10;;;0.80;;
55762;SDS011;42162;51.958;5.426;2023-10-31T06:25:50;2.35;;;1.15;;
55762;SDS011;42162;51.958;5.426;2023-10-31T06:28:17;4.35;;;1.00;;
55762;SDS011;42162;51.958;5.426;2023-10-31T06:30:44;1.65;;;0.90;;
55762;SDS011;42162;51.958;5.426;2023-10-31T06:33:12;1.65;;;0.77;;
55762;SDS011;42162;51.958;5.426;2023-10-31T06:35:39;3.55;;;0.90;;
55762;SDS011;42162;51.958;5.426;2023-10-31T06:38:06;1.42;;;0.70;;
55762;SDS011;42162;51.958;5.426;2023-10-31T06:40:33;2.58;;;1.70;;
55762;SDS011;42162;51.958;5.426;2023-10-31T06:43:01;8.07;;;3.20;;
55762;SDS011;42162;51.958;5.426;2023-10-31T06:45:28;3.80;;;2.92;;
55762;SDS011;42162;51.958;5.426;2023-10-31T06:47:56;6.05;;;3.88;;
55762;SDS011;42162;51.958;5.426;2023-10-31T06:50:23;4.88;;;3.88;;
55762;SDS011;42162;51.958;5.426;2023-10-31T06:52:51;6.20;;;3.88;;
55762;SDS011;42162;51.958;5.426;2023-10-31T06:55:18;5.07;;;3.60;;
55762;SDS011;42162;51.958;5.426;2023-10-31T06:57:46;5.75;;;4.05;;
55762;SDS011;42162;51.958;5.426;2023-10-31T07:00:13;8.85;;;4.15;;
55762;SDS011;42162;51.958;5.426;2023-10-31T07:02:41;5.60;;;3.60;;
55762;SDS011;42162;51.958;5.426;2023-10-31T07:05:08;6.90;;;4.50;;
55762;SDS011;42162;51.958;5.426;2023-10-31T07:07:36;7.38;;;4.05;;
55762;SDS011;42162;51.958;5.426;2023-10-31T07:10:03;7.40;;;4.78;;
55762;SDS011;42162;51.958;5.426;2023-10-31T07:12:31;5.28;;;4.22;;
55762;SDS011;42162;51.958;5.426;2023-10-31T07:14:58;6.10;;;4.45;;
55762;SDS011;42162;51.958;5.426;2023-10-31T07:17:25;7.05;;;5.05;;
55762;SDS011;42162;51.958;5.426;2023-10-31T07:19:53;5.40;;;3.70;;
55762;SDS011;42162;51.958;5.426;2023-10-31T07:22:20;6.30;;;4.55;;
55762;SDS011;42162;51.958;5.426;2023-10-31T07:24:49;6.43;;;5.18;;
55762;SDS011;42162;51.958;5.426;2023-10-31T07:27:17;6.72;;;5.78;;
55762;SDS011;42162;51.958;5.426;2023-10-31T07:29:45;12.07;;;5.28;;
55762;SDS011;42162;51.958;5.426;2023-10-31T07:32:13;8.65;;;5.28;;
55762;SDS011;42162;51.958;5.426;2023-10-31T07:34:40;6.13;;;4.85;;
55762;SDS011;42162;51.958;5.426;2023-10-31T07:37:08;7.13;;;5.32;;
55762;SDS011;42162;51.958;5.426;2023-10-31T07:39:36;6.55;;;4.93;;
55762;SDS011;42162;51.958;5.426;2023-10-31T07:42:03;8.98;;;5.60;;
55762;SDS011;42162;51.958;5.426;2023-10-31T07:44:30;6.72;;;5.10;;
55762;SDS011;42162;51.958;5.426;2023-10-31T07:46:57;8.45;;;5.45;;
55762;SDS011;42162;51.958;5.426;2023-10-31T07:49:25;7.97;;;4.88;;
55762;SDS011;42162;51.958;5.426;2023-10-31T07:51:52;9.57;;;5.40;;
55762;SDS011;42162;51.958;5.426;2023-10-31T07:54:19;7.97;;;5.20;;
55762;SDS011;42162;51.958;5.426;2023-10-31T07:56:47;5.35;;;4.70;;
55762;SDS011;42162;51.958;5.426;2023-10-31T07:59:14;10.50;;;5.28;;
55762;SDS011;42162;51.958;5.426;2023-10-31T08:01:41;6.30;;;4.60;;
55762;SDS011;42162;51.958;5.426;2023-10-31T08:04:08;7.55;;;5.03;;
55762;SDS011;42162;51.958;5.426;2023-10-31T08:06:36;9.80;;;4.75;;
55762;SDS011;42162;51.958;5.426;2023-10-31T08:09:04;5.82;;;4.07;;
55762;SDS011;42162;51.958;5.426;2023-10-31T08:11:34;4.93;;;3.88;;
55762;SDS011;42162;51.958;5.426;2023-10-31T08:14:02;6.85;;;3.92;;
55762;SDS011;42162;51.958;5.426;2023-10-31T08:16:29;5.53;;;3.17;;
55762;SDS011;42162;51.958;5.426;2023-10-31T08:18:56;6.90;;;3.33;;
55762;SDS011;42162;51.958;5.426;2023-10-31T08:21:23;6.05;;;3.22;;
55762;SDS011;42162;51.958;5.426;2023-10-31T08:23:51;6.43;;;2.92;;
55762;SDS011;42162;51.958;5.426;2023-10-31T08:26:18;6.43;;;3.38;;
55762;SDS011;42162;51.958;5.426;2023-10-31T08:28:46;8.73;;;2.95;;
55762;SDS011;42162;51.958;5.426;2023-10-31T08:31:13;7.22;;;3.58;;
55762;SDS011;42162;51.958;5.426;2023-10-31T08:33:40;6.25;;;3.13;;
55762;SDS011;42162;51.958;5.426;2023-10-31T08:36:07;8.23;;;2.80;;
55762;SDS011;42162;51.958;5.426;2023-10-31T08:38:35;5.50;;;3.15;;
55762;SDS011;42162;51.958;5.426;2023-10-31T08:41:03;4.93;;;3.20;;
55762;SDS011;42162;51.958;5.426;2023-10-31T08:43:30;5.90;;;2.75;;
55762;SDS011;42162;51.958;5.426;2023-10-31T08:45:58;4.60;;;3.10;;
55762;SDS011;42162;51.958;5.426;2023-10-31T08:48:25;5.63;;;2.88;;
55762;SDS011;42162;51.958;5.426;2023-10-31T08:50:53;7.18;;;3.63;;
55762;SDS011;42162;51.958;5.426;2023-10-31T08:53:20;7.72;;;3.55;;
55762;SDS011;42162;51.958;5.426;2023-10-31T08:55:47;5.68;;;3.45;;
55762;SDS011;42162;51.958;5.426;2023-10-31T08:58:14;5.80;;;3.50;;
55762;SDS011;42162;51.958;5.426;2023-10-31T09:00:42;8.60;;;3.60;;
55762;SDS011;42162;51.958;5.426;2023-10-31T09:03:09;5.97;;;3.60;;
55762;SDS011;42162;51.958;5.426;2023-10-31T09:05:36;10.10;;;3.25;;
55762;SDS011;42162;51.958;5.426;2023-10-31T09:08:03;5.85;;;3.08;;
55762;SDS011;42162;51.958;5.426;2023-10-31T09:10:33;6.38;;;2.97;;
55762;SDS011;42162;51.958;5.426;2023-10-31T09:13:02;5.53;;;2.72;;
55762;SDS011;42162;51.958;5.426;2023-10-31T09:15:29;4.13;;;3.20;;
55762;SDS011;42162;51.958;5.426;2023-10-31T09:17:56;7.05;;;3.67;;
55762;SDS011;42162;51.958;5.426;2023-10-31T09:20:24;7.93;;;4.45;;
55762;SDS011;42162;51.958;5.426;2023-10-31T09:22:51;10.18;;;3.95;;
55762;SDS011;42162;51.958;5.426;2023-10-31T09:25:18;8.68;;;4.80;;
55762;SDS011;42162;51.958;5.426;2023-10-31T09:27:46;7.00;;;4.47;;
55762;SDS011;42162;51.958;5.426;2023-10-31T09:30:13;8.02;;;4.55;;
55762;SDS011;42162;51.958;5.426;2023-10-31T09:32:40;7.93;;;4.80;;
55762;SDS011;42162;51.958;5.426;2023-10-31T09:35:07;7.43;;;5.22;;
55762;SDS011;42162;51.958;5.426;2023-10-31T09:37:35;5.88;;;4.38;;
55762;SDS011;42162;51.958;5.426;2023-10-31T09:40:02;7.40;;;4.63;;
55762;SDS011;42162;51.958;5.426;2023-10-31T09:42:30;7.53;;;4.60;;
55762;SDS011;42162;51.958;5.426;2023-10-31T09:44:57;6.40;;;4.72;;
55762;SDS011;42162;51.958;5.426;2023-10-31T09:47:24;7.38;;;4.43;;
55762;SDS011;42162;51.958;5.426;2023-10-31T09:49:51;13.13;;;6.32;;
55762;SDS011;42162;51.958;5.426;2023-10-31T09:52:22;8.95;;;5.22;;
55762;SDS011;42162;51.958;5.426;2023-10-31T09:54:50;8.80;;;5.25;;
55762;SDS011;42162;51.958;5.426;2023-10-31T09:57:22;9.33;;;5.13;;
55762;SDS011;42162;51.958;5.426;2023-10-31T09:59:49;10.90;;;6.50;;
55762;SDS011;42162;51.958;5.426;2023-10-31T10:02:28;9.02;;;4.50;;
55762;SDS011;42162;51.958;5.426;2023-10-31T10:04:56;11.75;;;4.55;;
55762;SDS011;42162;51.958;5.426;2023-10-31T10:07:23;6.15;;;4.43;;
55762;SDS011;42162;51.958;5.426;2023-10-31T10:09:51;8.52;;;4.90;;
55762;SDS011;42162;51.958;5.426;2023-10-31T10:12:29;11.73;;;4.63;;
55762;SDS011;42162;51.958;5.426;2023-10-31T10:15:05;10.73;;;5.30;;
55762;SDS011;42162;51.958;5.426;2023-10-31T10:17:48;7.45;;;4.47;;
55762;SDS011;42162;51.958;5.426;2023-10-31T10:20:21;10.48;;;5.30;;
55762;SDS011;42162;51.958;5.426;2023-10-31T10:22:53;16.52;;;5.55;;
55762;SDS011;42162;51.958;5.426;2023-10-31T10:25:27;11.68;;;4.78;;
55762;SDS011;42162;51.958;5.426;2023-10-31T10:28:04;12.20;;;5.45;;
55762;SDS011;42162;51.958;5.426;2023-10-31T10:30:32;10.15;;;5.43;;
55762;SDS011;42162;51.958;5.426;2023-10-31T10:33:05;8.48;;;4.43;;
55762;SDS011;42162;51.958;5.426;2023-10-31T10:35:32;7.15;;;3.72;;
55762;SDS011;42162;51.958;5.426;2023-10-31T10:38:01;9.98;;;3.97;;
55762;SDS011;42162;51.958;5.426;2023-10-31T10:40:32;4.82;;;3.45;;
55762;SDS011;42162;51.958;5.426;2023-10-31T10:43:01;8.70;;;3.97;;
55762;SDS011;42162;51.958;5.426;2023-10-31T10:45:37;6.90;;;3.70;;
55762;SDS011;42162;51.958;5.426;2023-10-31T10:48:10;8.13;;;3.80;;
55762;SDS011;42162;51.958;5.426;2023-10-31T10:50:41;10.80;;;4.20;;
55762;SDS011;42162;51.958;5.426;2023-10-31T10:55:47;7.97;;;5.45;;
55762;SDS011;42162;51.958;5.426;2023-10-31T10:58:22;7.53;;;4.30;;
55762;SDS011;42162;51.958;5.426;2023-10-31T11:00:54;7.18;;;4.45;;
55762;SDS011;42162;51.958;5.426;2023-10-31T11:03:22;14.05;;;5.30;;
55762;SDS011;42162;51.958;5.426;2023-10-31T11:05:51;7.70;;;4.85;;
55762;SDS011;42162;51.958;5.426;2023-10-31T11:08:20;8.57;;;5.13;;
55762;SDS011;42162;51.958;5.426;2023-10-31T11:10:47;12.15;;;5.25;;
55762;SDS011;42162;51.958;5.426;2023-10-31T11:13:16;8.27;;;5.95;;
55762;SDS011;42162;51.958;5.426;2023-10-31T11:15:44;9.18;;;6.20;;
55762;SDS011;42162;51.958;5.426;2023-10-31T11:18:12;8.00;;;5.35;;
55762;SDS011;42162;51.958;5.426;2023-10-31T11:20:40;11.05;;;7.03;;
55762;SDS011;42162;51.958;5.426;2023-10-31T11:23:08;9.40;;;7.18;;
55762;SDS011;42162;51.958;5.426;2023-10-31T11:25:35;12.70;;;7.95;;
55762;SDS011;42162;51.958;5.426;2023-10-31T11:28:11;18.30;;;9.63;;
55762;SDS011;42162;51.958;5.426;2023-10-31T11:30:42;14.90;;;8.90;;
55762;SDS011;42162;51.958;5.426;2023-10-31T11:33:13;14.57;;;9.95;;
55762;SDS011;42162;51.958;5.426;2023-10-31T11:35:42;15.32;;;9.80;;
55762;SDS011;42162;51.958;5.426;2023-10-31T11:38:11;13.80;;;8.90;;
55762;SDS011;42162;51.958;5.426;2023-10-31T11:41:01;13.75;;;9.45;;
55762;SDS011;42162;51.958;5.426;2023-10-31T11:46:20;15.23;;;9.90;;
55762;SDS011;42162;51.958;5.426;2023-10-31T11:48:53;16.20;;;11.23;;
55762;SDS011;42162;51.958;5.426;2023-10-31T11:51:24;15.82;;;11.23;;
55762;SDS011;42162;51.958;5.426;2023-10-31T11:53:52;16.58;;;10.57;;
55762;SDS011;42162;51.958;5.426;2023-10-31T11:56:19;18.27;;;11.52;;
55762;SDS011;42162;51.958;5.426;2023-10-31T11:59:03;18.52;;;13.18;;
55762;SDS011;42162;51.958;5.426;2023-10-31T12:01:33;21.38;;;13.20;;
55762;SDS011;42162;51.958;5.426;2023-10-31T12:04:00;21.23;;;14.38;;
55762;SDS011;42162;51.958;5.426;2023-10-31T12:06:30;19.77;;;12.23;;
55762;SDS011;42162;51.958;5.426;2023-10-31T12:08:59;20.77;;;13.18;;
55762;SDS011;42162;51.958;5.426;2023-10-31T12:11:27;20.23;;;11.95;;
55762;SDS011;42162;51.958;5.426;2023-10-31T12:16:32;24.65;;;13.43;;
55762;SDS011;42162;51.958;5.426;2023-10-31T12:19:01;21.38;;;12.70;;
55762;SDS011;42162;51.958;5.426;2023-10-31T12:21:36;16.95;;;10.48;;
55762;SDS011;42162;51.958;5.426;2023-10-31T12:24:11;20.77;;;11.75;;
55762;SDS011;42162;51.958;5.426;2023-10-31T12:26:39;15.20;;;10.95;;
55762;SDS011;42162;51.958;5.426;2023-10-31T12:29:08;16.95;;;9.77;;
55762;SDS011;42162;51.958;5.426;2023-10-31T12:34:16;14.00;;;8.35;;
55762;SDS011;42162;51.958;5.426;2023-10-31T12:36:45;13.77;;;8.90;;
55762;SDS011;42162;51.958;5.426;2023-10-31T12:39:14;15.63;;;9.38;;
55762;SDS011;42162;51.958;5.426;2023-10-31T12:41:43;14.30;;;10.45;;
55762;SDS011;42162;51.958;5.426;2023-10-31T12:44:10;20.63;;;10.85;;
55762;SDS011;42162;51.958;5.426;2023-10-31T12:46:41;18.52;;;10.80;;
55762;SDS011;42162;51.958;5.426;2023-10-31T12:49:12;20.42;;;10.75;;
55762;SDS011;42162;51.958;5.426;2023-10-31T12:52:02;17.20;;;9.57;;
55762;SDS011;42162;51.958;5.426;2023-10-31T12:54:35;15.10;;;9.13;;
55762;SDS011;42162;51.958;5.426;2023-10-31T12:57:04;18.90;;;9.77;;
55762;SDS011;42162;51.958;5.426;2023-10-31T12:59:33;17.85;;;9.65;;
55762;SDS011;42162;51.958;5.426;2023-10-31T13:02:03;13.02;;;8.85;;
55762;SDS011;42162;51.958;5.426;2023-10-31T13:04:31;13.77;;;9.40;;
55762;SDS011;42162;51.958;5.426;2023-10-31T13:09:34;12.43;;;9.35;;
55762;SDS011;42162;51.958;5.426;2023-10-31T13:12:06;13.25;;;9.73;;
55762;SDS011;42162;51.958;5.426;2023-10-31T13:14:34;11.65;;;9.10;;
55762;SDS011;42162;51.958;5.426;2023-10-31T13:17:03;11.45;;;8.60;;
55762;SDS011;42162;51.958;5.426;2023-10-31T13:19:31;13.27;;;8.98;;
55762;SDS011;42162;51.958;5.426;2023-10-31T13:21:58;11.40;;;8.30;;
55762;SDS011;42162;51.958;5.426;2023-10-31T13:24:25;12.23;;;9.18;;
55762;SDS011;42162;51.958;5.426;2023-10-31T13:26:53;11.90;;;9.68;;
55762;SDS011;42162;51.958;5.426;2023-10-31T13:29:20;13.23;;;10.00;;
55762;SDS011;42162;51.958;5.426;2023-10-31T13:31:48;11.82;;;10.00;;
55762;SDS011;42162;51.958;5.426;2023-10-31T13:34:15;14.73;;;10.07;;
55762;SDS011;42162;51.958;5.426;2023-10-31T13:36:43;19.55;;;10.57;;
55762;SDS011;42162;51.958;5.426;2023-10-31T13:39:11;14.27;;;11.95;;
55762;SDS011;42162;51.958;5.426;2023-10-31T13:41:38;13.98;;;11.40;;
55762;SDS011;42162;51.958;5.426;2023-10-31T13:44:06;16.52;;;11.63;;
55762;SDS011;42162;51.958;5.426;2023-10-31T13:46:33;15.95;;;13.77;;
55762;SDS011;42162;51.958;5.426;2023-10-31T13:49:00;17.85;;;13.43;;
55762;SDS011;42162;51.958;5.426;2023-10-31T13:51:27;15.93;;;14.05;;
55762;SDS011;42162;51.958;5.426;2023-10-31T13:53:57;16.88;;;13.05;;
55762;SDS011;42162;51.958;5.426;2023-10-31T13:56:24;17.15;;;13.75;;
55762;SDS011;42162;51.958;5.426;2023-10-31T13:58:51;15.63;;;12.93;;
55762;SDS011;42162;51.958;5.426;2023-10-31T14:01:19;19.10;;;14.70;;
55762;SDS011;42162;51.958;5.426;2023-10-31T14:03:51;14.93;;;13.43;;
55762;SDS011;42162;51.958;5.426;2023-10-31T14:06:19;16.50;;;13.80;;
55762;SDS011;42162;51.958;5.426;2023-10-31T14:08:46;16.83;;;13.23;;
55762;SDS011;42162;51.958;5.426;2023-10-31T14:11:14;14.93;;;13.07;;
55762;SDS011;42162;51.958;5.426;2023-10-31T14:13:42;19.00;;;12.63;;
55762;SDS011;42162;51.958;5.426;2023-10-31T14:16:11;15.63;;;13.43;;
55762;SDS011;42162;51.958;5.426;2023-10-31T14:18:39;18.40;;;13.57;;
55762;SDS011;42162;51.958;5.426;2023-10-31T14:21:07;14.93;;;12.05;;
55762;SDS011;42162;51.958;5.426;2023-10-31T14:23:35;11.15;;;8.73;;
55762;SDS011;42162;51.958;5.426;2023-10-31T14:26:03;13.48;;;8.63;;
55762;SDS011;42162;51.958;5.426;2023-10-31T14:28:30;10.48;;;6.90;;
55762;SDS011;42162;51.958;5.426;2023-10-31T14:30:57;11.02;;;7.20;;
55762;SDS011;42162;51.958;5.426;2023-10-31T14:33:24;7.78;;;6.13;;
55762;SDS011;42162;51.958;5.426;2023-10-31T14:35:52;7.97;;;5.93;;
55762;SDS011;42162;51.958;5.426;2023-10-31T14:38:19;7.47;;;5.35;;
55762;SDS011;42162;51.958;5.426;2023-10-31T14:40:46;7.20;;;5.55;;
55762;SDS011;42162;51.958;5.426;2023-10-31T14:43:13;8.63;;;5.70;;
55762;SDS011;42162;51.958;5.426;2023-10-31T14:45:45;8.57;;;6.25;;
55762;SDS011;42162;51.958;5.426;2023-10-31T14:48:12;9.80;;;6.32;;
55762;SDS011;42162;51.958;5.426;2023-10-31T14:50:39;6.50;;;5.20;;
55762;SDS011;42162;51.958;5.426;2023-10-31T14:53:07;10.82;;;5.30;;
55762;SDS011;42162;51.958;5.426;2023-10-31T14:55:36;7.85;;;4.93;;
55762;SDS011;42162;51.958;5.426;2023-10-31T14:58:03;6.63;;;5.38;;
55762;SDS011;42162;51.958;5.426;2023-10-31T15:00:30;9.13;;;5.68;;
55762;SDS011;42162;51.958;5.426;2023-10-31T15:02:58;6.35;;;4.25;;